Time;durP1;ratioP1;P1;durP2;ratioP2;P2;SDS_P1;SDS_P2;PMS_P1;PMS_P2;Temp;Humidity;BMP_temperature;BMP_pressure;BME280_temperature;BME280_humidity;BME280_pressure;Samples;Min_cycle;Max_cycle;Signal;HPM_P1;HPM_P2
2022/08/24 00:00:49;;;;;;;3.95;3.55;;;22.40;99.90;;;;;;6199776;28;88299;-66
2022/08/24 00:03:51;;;;;;;3.30;3.00;;;22.40;99.90;;;;;;6196152;28;87990;-67
2022/08/24 00:06:55;;;;;;;3.40;3.10;;;22.40;99.90;;;;;;6207673;28;87780;-66
2022/08/24 00:09:57;;;;;;;3.65;3.35;;;22.40;99.90;;;;;;6204496;28;90050;-66
2022/08/24 00:12:59;;;;;;;3.50;3.20;;;22.40;99.90;;;;;;6200158;28;89169;-67
2022/08/24 00:16:01;;;;;;;4.00;3.60;;;22.40;99.90;;;;;;6185442;28;89089;-66
2022/08/24 00:19:03;;;;;;;4.43;3.58;;;22.40;99.90;;;;;;6198330;28;89020;-66
2022/08/24 00:22:07;;;;;;;4.53;4.13;;;22.40;99.90;;;;;;6197576;28;89127;-67
2022/08/24 00:25:10;;;;;;;4.00;3.40;;;22.40;99.90;;;;;;6193966;28;89429;-67
2022/08/24 00:28:14;;;;;;;4.18;3.78;;;22.40;99.90;;;;;;6198955;28;88976;-67
2022/08/24 00:31:16;;;;;;;4.07;3.60;;;22.40;99.90;;;;;;6209091;28;89788;-67
2022/08/24 00:34:18;;;;;;;3.50;3.20;;;22.40;99.90;;;;;;6191615;28;88900;-66
2022/08/24 00:37:21;;;;;;;4.05;3.40;;;22.40;99.90;;;;;;6200129;28;87805;-66
2022/08/24 00:40:26;;;;;;;6.63;3.40;;;22.30;99.90;;;;;;6195752;28;89091;-67
2022/08/24 00:43:28;;;;;;;3.45;3.20;;;22.30;99.90;;;;;;6206540;28;89123;-67
2022/08/24 00:46:42;;;;;;;3.22;3.00;;;22.40;99.90;;;;;;6204748;28;87952;-67
2022/08/24 00:49:49;;;;;;;4.10;3.70;;;22.40;99.90;;;;;;6202572;28;89046;-67
2022/08/24 00:52:57;;;;;;;3.75;3.45;;;22.40;99.90;;;;;;6183435;28;88113;-67
2022/08/24 00:56:03;;;;;;;3.38;3.08;;;22.30;99.90;;;;;;6198034;28;88940;-67
2022/08/24 00:59:11;;;;;;;3.60;3.30;;;22.30;99.90;;;;;;6203969;28;90143;-66
2022/08/24 01:02:20;;;;;;;4.38;3.20;;;22.30;99.90;;;;;;6205952;28;87092;-67
2022/08/24 01:05:22;;;;;;;4.50;3.65;;;22.30;99.90;;;;;;6202492;28;89190;-67
2022/08/24 01:08:26;;;;;;;4.10;3.70;;;22.30;99.90;;;;;;6181040;28;89062;-67
2022/08/24 01:11:32;;;;;;;4.05;3.22;;;22.40;99.90;;;;;;6190703;28;90143;-67
2022/08/24 01:14:34;;;;;;;5.45;3.67;;;22.40;99.90;;;;;;6192854;28;87874;-67
2022/08/24 01:21:12;;;;;;;4.25;3.40;;;22.30;99.90;;;;;;6164323;28;87525;-67
2022/08/24 01:24:15;;;;;;;3.97;3.65;;;22.30;99.90;;;;;;6198530;28;89342;-67
2022/08/24 01:27:18;;;;;;;3.88;3.33;;;22.30;99.90;;;;;;6196479;28;89396;-67
2022/08/24 01:30:21;;;;;;;4.20;3.80;;;22.30;99.90;;;;;;6202329;28;89033;-67
2022/08/24 01:33:25;;;;;;;4.35;3.95;;;22.30;99.90;;;;;;6191960;28;87336;-67
2022/08/24 01:36:32;;;;;;;4.05;3.65;;;22.30;99.90;;;;;;6193202;28;89032;-66
2022/08/24 01:39:39;;;;;;;3.92;3.50;;;22.30;99.90;;;;;;6182601;28;89034;-67
2022/08/24 01:42:46;;;;;;;3.88;3.47;;;22.30;99.90;;;;;;6190314;28;89999;-66
2022/08/24 01:45:48;;;;;;;3.63;3.25;;;22.30;99.90;;;;;;6196627;28;89175;-66
2022/08/24 01:48:50;;;;;;;3.92;3.50;;;22.30;99.90;;;;;;6200890;28;89083;-67
2022/08/24 01:51:52;;;;;;;4.25;3.40;;;22.20;99.90;;;;;;6197399;28;89015;-67
2022/08/24 01:54:56;;;;;;;4.65;3.33;;;22.30;99.90;;;;;;6199274;28;89095;-67
2022/08/24 01:57:59;;;;;;;3.63;3.33;;;22.30;99.90;;;;;;6194732;28;89490;-66
2022/08/24 02:01:01;;;;;;;3.78;3.25;;;22.20;99.90;;;;;;6204511;28;89365;-66
2022/08/24 02:04:06;;;;;;;3.88;3.47;;;22.30;99.90;;;;;;6200933;28;88339;-66
2022/08/24 02:07:08;;;;;;;4.03;3.28;;;22.30;99.90;;;;;;6195000;28;89115;-66
2022/08/24 02:10:13;;;;;;;4.20;3.25;;;22.30;99.90;;;;;;6199975;28;89385;-67
2022/08/24 02:13:15;;;;;;;4.82;3.55;;;22.30;99.90;;;;;;6201752;28;90400;-67
2022/08/24 02:16:17;;;;;;;5.57;4.18;;;22.20;99.90;;;;;;6187703;28;89149;-67
2022/08/24 02:19:19;;;;;;;3.90;3.60;;;22.20;99.90;;;;;;6191374;28;89099;-67
2022/08/24 02:22:21;;;;;;;4.60;3.47;;;22.30;99.90;;;;;;6205264;28;89994;-66
2022/08/24 02:25:28;;;;;;;4.32;3.90;;;22.20;99.90;;;;;;6191084;28;89538;-67
2022/08/24 02:28:31;;;;;;;4.82;3.65;;;22.20;99.90;;;;;;6198680;28;89563;-67
2022/08/24 02:31:35;;;;;;;4.30;3.50;;;22.20;99.90;;;;;;6199218;28;87886;-67
2022/08/24 02:34:37;;;;;;;3.80;3.50;;;22.20;99.90;;;;;;6193490;28;88326;-67
2022/08/24 02:37:39;;;;;;;4.00;3.60;;;22.20;99.90;;;;;;6184946;28;89059;-67
2022/08/24 02:40:43;;;;;;;3.88;3.58;;;22.20;99.90;;;;;;6185431;28;87794;-67
2022/08/24 02:43:46;;;;;;;4.00;3.60;;;22.20;99.90;;;;;;6184045;28;89016;-66
2022/08/24 02:46:48;;;;;;;4.70;3.85;;;22.20;99.90;;;;;;6185672;28;89172;-66
2022/08/24 02:49:50;;;;;;;4.18;3.80;;;22.20;99.90;;;;;;6190330;28;89111;-67
2022/08/24 02:52:53;;;;;;;4.10;3.80;;;22.20;99.90;;;;;;6197229;28;89086;-67
2022/08/24 02:55:56;;;;;;;4.35;3.80;;;22.20;99.90;;;;;;6185106;28;89118;-67
2022/08/24 02:58:59;;;;;;;4.78;3.83;;;22.20;99.90;;;;;;6208627;28;89218;-67
2022/08/24 03:02:01;;;;;;;4.00;3.60;;;22.20;99.90;;;;;;6197543;28;87982;-66
2022/08/24 03:05:04;;;;;;;3.70;3.40;;;22.20;99.90;;;;;;6204648;28;88461;-67
2022/08/24 03:08:06;;;;;;;3.58;3.28;;;22.20;99.90;;;;;;6207410;28;87799;-67
2022/08/24 03:11:09;;;;;;;3.65;3.30;;;22.20;99.90;;;;;;6200445;28;89069;-66
2022/08/24 03:14:12;;;;;;;4.13;3.60;;;22.10;99.90;;;;;;6206980;28;90042;-66
2022/08/24 03:17:13;;;;;;;3.88;3.58;;;22.20;99.90;;;;;;6220840;28;89132;-67
2022/08/24 03:20:18;;;;;;;3.50;3.15;;;22.20;99.90;;;;;;6208181;28;88302;-66
2022/08/24 03:23:21;;;;;;;4.50;3.53;;;22.10;99.90;;;;;;6207275;28;89038;-66
2022/08/24 03:26:24;;;;;;;4.82;3.80;;;22.20;99.90;;;;;;6193865;28;89337;-67
2022/08/24 03:29:26;;;;;;;3.78;3.40;;;22.20;99.90;;;;;;6208836;28;89260;-66
2022/08/24 03:32:29;;;;;;;4.60;3.90;;;22.10;99.90;;;;;;6194058;28;89215;-66
2022/08/24 03:35:31;;;;;;;3.80;3.50;;;22.20;99.90;;;;;;6197298;28;88287;-66
2022/08/24 03:38:33;;;;;;;4.82;3.67;;;22.10;99.90;;;;;;6195196;28;89084;-66
2022/08/24 03:41:36;;;;;;;7.00;3.90;;;22.20;99.90;;;;;;6182823;28;89050;-66
2022/08/24 03:44:40;;;;;;;4.10;3.70;;;22.20;99.90;;;;;;6208176;28;90000;-66
2022/08/24 03:47:42;;;;;;;3.80;3.50;;;22.10;99.90;;;;;;6193222;28;89046;-66
2022/08/24 03:50:45;;;;;;;3.92;3.58;;;22.10;99.90;;;;;;6182546;28;89571;-66
2022/08/24 03:53:47;;;;;;;4.20;3.80;;;22.10;99.90;;;;;;6197413;28;89238;-67
2022/08/24 03:56:50;;;;;;;4.80;3.80;;;22.10;99.90;;;;;;6194673;28;87863;-66
2022/08/24 03:59:53;;;;;;;4.43;3.72;;;22.10;99.90;;;;;;6188082;28;89299;-66
2022/08/24 04:02:55;;;;;;;4.18;3.80;;;22.10;99.90;;;;;;6195204;28;89238;-67
2022/08/24 04:05:57;;;;;;;4.40;4.00;;;22.10;99.90;;;;;;6200749;28;88367;-67
2022/08/24 04:08:59;;;;;;;4.47;3.75;;;22.10;99.90;;;;;;6207015;28;89389;-67
2022/08/24 04:12:03;;;;;;;4.18;3.78;;;22.10;99.90;;;;;;6194737;28;89432;-67
2022/08/24 04:15:06;;;;;;;4.30;3.90;;;22.10;99.90;;;;;;6188415;28;90124;-66
2022/08/24 04:18:08;;;;;;;4.18;3.67;;;22.10;99.90;;;;;;6185119;28;89098;-67
2022/08/24 04:21:18;;;;;;;4.25;3.65;;;22.10;99.90;;;;;;6195773;28;89304;-67
2022/08/24 04:24:20;;;;;;;4.55;4.00;;;22.10;99.90;;;;;;6197589;28;89082;-67
2022/08/24 04:27:24;;;;;;;4.47;4.07;;;22.10;99.90;;;;;;6195333;28;89013;-67
2022/08/24 04:30:26;;;;;;;3.92;3.63;;;22.10;99.90;;;;;;6187047;28;88001;-67
2022/08/24 04:33:28;;;;;;;5.25;4.20;;;22.10;99.90;;;;;;6202439;28;89167;-66
2022/08/24 04:36:31;;;;;;;4.03;3.72;;;22.10;99.90;;;;;;6191535;28;88941;-66
2022/08/24 04:39:33;;;;;;;4.38;3.90;;;22.10;99.90;;;;;;6192085;28;88767;-67
2022/08/24 04:42:36;;;;;;;4.53;3.80;;;22.10;99.90;;;;;;6201847;28;88925;-66
2022/08/24 04:45:40;;;;;;;4.30;3.90;;;22.10;99.90;;;;;;6187745;28;88890;-66
2022/08/24 04:48:43;;;;;;;7.00;3.88;;;22.10;99.90;;;;;;6189141;28;89046;-66
2022/08/24 04:51:45;;;;;;;5.40;3.58;;;22.10;99.90;;;;;;6195392;28;89223;-67
2022/08/24 04:54:47;;;;;;;3.90;3.50;;;22.10;99.90;;;;;;6194151;28;89003;-66
2022/08/24 04:57:51;;;;;;;5.90;4.00;;;22.10;99.90;;;;;;6204625;28;88940;-67
2022/08/24 05:00:53;;;;;;;5.80;3.95;;;22.10;99.90;;;;;;6202906;28;89135;-67
2022/08/24 05:03:56;;;;;;;5.38;4.03;;;22.10;99.90;;;;;;6194536;28;89063;-66
2022/08/24 05:06:58;;;;;;;4.68;3.80;;;22.00;99.90;;;;;;6204247;28;88419;-67
2022/08/24 05:10:00;;;;;;;3.88;3.53;;;22.10;99.90;;;;;;6184120;28;89106;-67
2022/08/24 05:13:04;;;;;;;5.03;3.42;;;22.00;99.90;;;;;;6193157;28;89279;-67
2022/08/24 05:16:08;;;;;;;5.13;3.72;;;22.10;99.90;;;;;;6180919;28;90064;-66
2022/08/24 05:19:11;;;;;;;3.97;3.53;;;22.00;99.90;;;;;;6195001;28;88952;-66
2022/08/24 05:22:13;;;;;;;3.80;3.40;;;22.00;99.90;;;;;;6189428;28;89436;-67
2022/08/24 05:25:15;;;;;;;5.72;3.70;;;22.00;99.90;;;;;;6200538;28;89548;-67
2022/08/24 05:28:19;;;;;;;3.90;3.60;;;22.10;99.90;;;;;;6198882;28;89180;-67
2022/08/24 05:31:23;;;;;;;5.00;3.35;;;22.00;99.90;;;;;;6182222;28;89569;-67
2022/08/24 05:34:25;;;;;;;5.72;3.90;;;22.10;99.90;;;;;;6204854;28;89096;-67
2022/08/24 05:37:27;;;;;;;3.58;3.28;;;22.10;99.90;;;;;;6218412;28;88651;-67
2022/08/24 05:40:28;;;;;;;3.60;3.10;;;22.10;99.90;;;;;;6206140;28;89063;-67
2022/08/24 05:43:32;;;;;;;4.40;3.47;;;22.10;99.90;;;;;;6181922;28;89335;-67
2022/08/24 05:46:35;;;;;;;3.47;3.13;;;22.10;99.90;;;;;;6180169;28;90088;-67
2022/08/24 05:49:37;;;;;;;4.10;3.72;;;22.10;99.90;;;;;;6191728;28;88044;-67
2022/08/24 05:52:39;;;;;;;5.65;3.90;;;22.10;99.90;;;;;;6192118;28;87140;-67
2022/08/24 05:55:41;;;;;;;4.03;3.53;;;22.10;99.90;;;;;;6184714;28;89153;-67
2022/08/24 05:58:45;;;;;;;4.90;4.43;;;22.20;99.90;;;;;;6191167;28;88297;-67
2022/08/24 06:01:47;;;;;;;6.28;4.43;;;22.10;99.90;;;;;;6201638;28;89067;-67
2022/08/24 06:04:49;;;;;;;4.22;3.92;;;22.10;99.90;;;;;;6195995;28;89163;-67
2022/08/24 06:07:51;;;;;;;4.70;4.18;;;22.20;99.90;;;;;;6203139;28;88326;-67
2022/08/24 06:10:53;;;;;;;4.85;4.35;;;22.20;99.90;;;;;;6195671;28;89381;-67
2022/08/24 06:14:00;;;;;;;6.40;4.57;;;22.20;99.90;;;;;;6184345;28;88029;-67
2022/08/24 06:17:04;;;;;;;4.43;4.03;;;22.20;99.90;;;;;;6208048;28;90137;-67
2022/08/24 06:20:08;;;;;;;5.78;5.28;;;22.20;99.90;;;;;;6198826;28;89104;-67
2022/08/24 06:23:10;;;;;;;5.88;4.75;;;22.20;99.90;;;;;;6197926;28;88941;-67
2022/08/24 06:29:35;;;;;;;4.53;4.13;;;22.20;99.90;;;;;;6194017;28;87337;-67
2022/08/24 06:32:37;;;;;;;5.55;5.05;;;22.20;99.90;;;;;;6195160;28;89533;-67
2022/08/24 06:35:40;;;;;;;4.60;4.20;;;22.20;99.90;;;;;;6189786;28;89090;-67
2022/08/24 06:38:42;;;;;;;4.88;4.38;;;22.30;99.90;;;;;;6197319;28;88483;-67
2022/08/24 06:41:44;;;;;;;8.05;6.45;;;22.20;99.90;;;;;;6184106;28;89289;-67
2022/08/24 06:44:48;;;;;;;5.53;5.03;;;22.30;99.90;;;;;;6185928;28;89075;-67
2022/08/24 06:47:50;;;;;;;5.93;5.05;;;22.30;99.90;;;;;;6184480;28;90165;-68
2022/08/24 06:50:53;;;;;;;5.65;5.13;;;22.30;99.90;;;;;;6188760;28;89064;-67
2022/08/24 06:53:55;;;;;;;4.88;4.45;;;22.30;99.90;;;;;;6202495;28;90122;-67
2022/08/24 06:56:58;;;;;;;6.07;5.47;;;22.30;99.90;;;;;;6204240;28;89047;-67
2022/08/24 07:00:03;;;;;;;6.68;5.93;;;22.30;99.90;;;;;;6204774;28;88027;-67
2022/08/24 07:03:05;;;;;;;6.00;5.40;;;22.30;99.90;;;;;;6187874;28;89223;-67
2022/08/24 07:06:08;;;;;;;5.35;4.85;;;22.30;99.90;;;;;;6194895;28;88993;-67
2022/08/24 07:09:11;;;;;;;4.93;4.50;;;22.30;99.90;;;;;;6196807;28;88372;-67
2022/08/24 07:12:13;;;;;;;5.82;5.22;;;22.30;99.90;;;;;;6202882;28;89471;-67
2022/08/24 07:15:18;;;;;;;6.15;5.55;;;22.30;99.90;;;;;;6196232;28;91613;-67
2022/08/24 07:18:20;;;;;;;6.47;5.85;;;22.30;99.90;;;;;;6204085;28;89947;-67
2022/08/24 07:21:23;;;;;;;5.93;5.43;;;22.40;99.90;;;;;;6195577;28;89135;-67
2022/08/24 07:24:25;;;;;;;5.53;5.03;;;22.30;99.90;;;;;;6190708;28;89461;-67
2022/08/24 07:27:27;;;;;;;6.47;5.88;;;22.30;99.90;;;;;;6204926;28;89516;-67
2022/08/24 07:30:30;;;;;;;5.53;5.03;;;22.30;99.90;;;;;;6194966;28;89528;-67
2022/08/24 07:33:33;;;;;;;6.10;5.50;;;22.30;99.90;;;;;;6193425;28;89149;-67
2022/08/24 07:36:37;;;;;;;5.70;5.20;;;22.30;99.90;;;;;;6193008;28;89251;-67
2022/08/24 07:39:38;;;;;;;5.80;5.20;;;22.30;99.90;;;;;;6207003;28;88295;-68
2022/08/24 07:42:41;;;;;;;5.35;4.85;;;22.30;99.90;;;;;;6196414;28;89382;-67
2022/08/24 07:45:44;;;;;;;5.20;4.70;;;22.30;99.90;;;;;;6182924;28;89554;-67
2022/08/24 07:48:46;;;;;;;6.40;5.80;;;22.30;99.90;;;;;;6201128;28;89997;-67
2022/08/24 07:51:52;;;;;;;6.57;5.95;;;22.30;99.90;;;;;;6203734;28;89364;-67
2022/08/24 07:54:54;;;;;;;5.72;5.20;;;22.30;99.90;;;;;;6202653;28;91038;-67
2022/08/24 07:57:55;;;;;;;6.35;5.75;;;22.40;99.90;;;;;;6200821;28;89036;-67
2022/08/24 08:01:00;;;;;;;7.30;5.90;;;22.40;99.90;;;;;;6197933;28;89485;-67
2022/08/24 08:04:02;;;;;;;5.95;5.35;;;22.40;99.90;;;;;;6191385;28;89228;-67
2022/08/24 08:07:06;;;;;;;5.65;5.15;;;22.40;99.90;;;;;;6207810;28;87929;-67
2022/08/24 08:10:10;;;;;;;5.63;5.03;;;22.40;99.90;;;;;;6205226;28;88254;-67
2022/08/24 08:13:12;;;;;;;5.97;5.40;;;22.40;99.90;;;;;;6193223;28;89053;-67
2022/08/24 08:16:15;;;;;;;5.57;5.07;;;22.40;99.90;;;;;;6207096;28;89086;-67
2022/08/24 08:19:17;;;;;;;5.78;5.22;;;22.40;99.90;;;;;;6194315;28;88828;-68
2022/08/24 08:25:39;;;;;;;6.50;5.55;;;22.40;99.90;;;;;;6196114;28;87371;-67
2022/08/24 08:28:41;;;;;;;5.63;5.13;;;22.40;99.90;;;;;;6187407;28;89787;-67
2022/08/24 08:31:45;;;;;;;5.60;5.10;;;22.40;99.90;;;;;;6204305;28;89066;-67
2022/08/24 08:34:47;;;;;;;5.88;5.28;;;22.40;99.90;;;;;;6203691;28;89279;-67
2022/08/24 08:37:50;;;;;;;5.95;5.05;;;22.40;99.90;;;;;;6192918;28;89457;-67
2022/08/24 08:41:05;;;;;;;5.40;4.90;;;22.40;99.90;;;;;;6193710;28;88356;-67
2022/08/24 08:44:14;;;;;;;5.47;4.82;;;22.40;99.90;;;;;;6198207;28;88986;-67
2022/08/24 08:47:33;;;;;;;4.78;4.38;;;22.40;99.90;;;;;;6206613;28;90240;-67
2022/08/24 08:50:46;;;;;;;5.07;4.47;;;22.50;99.90;;;;;;6195554;28;89972;-67
2022/08/24 08:54:13;;;;;;;4.45;4.05;;;22.40;99.90;;;;;;6192686;28;89130;-67
2022/08/24 08:57:35;;;;;;;4.28;3.88;;;22.50;99.90;;;;;;6183787;28;88012;-67
2022/08/24 09:00:52;;;;;;;4.35;3.83;;;22.40;99.90;;;;;;6201050;28;89236;-68
2022/08/24 09:04:28;;;;;;;4.30;3.90;;;22.50;99.90;;;;;;6191808;28;89455;-67
2022/08/24 09:07:44;;;;;;;3.85;3.55;;;22.50;99.90;;;;;;6183706;28;89420;-67
2022/08/24 09:10:56;;;;;;;4.30;3.90;;;22.40;99.90;;;;;;6206047;28;89114;-67
2022/08/24 09:14:32;;;;;;;4.68;3.80;;;22.40;99.90;;;;;;6192833;28;88247;-68
2022/08/24 09:17:45;;;;;;;3.88;3.58;;;22.40;99.90;;;;;;6204972;28;89207;-67
2022/08/24 09:21:03;;;;;;;3.60;3.30;;;22.40;99.90;;;;;;6187231;28;90190;-67
2022/08/24 09:24:24;;;;;;;4.10;3.70;;;22.50;99.90;;;;;;6193532;28;90177;-68
2022/08/24 09:27:35;;;;;;;4.07;3.67;;;22.50;99.90;;;;;;6191848;28;88973;-67
2022/08/24 09:30:56;;;;;;;4.18;3.80;;;22.50;99.90;;;;;;6202811;28;89047;-67
2022/08/24 09:34:09;;;;;;;3.95;3.60;;;22.50;99.90;;;;;;6182147;28;89188;-68
2022/08/24 09:37:32;;;;;;;4.53;4.13;;;22.50;99.90;;;;;;6181276;28;89416;-67
2022/08/24 09:40:49;;;;;;;4.45;3.78;;;22.50;99.90;;;;;;6181510;28;90123;-67
2022/08/24 09:44:24;;;;;;;4.43;4.03;;;22.50;99.90;;;;;;6182163;28;89361;-67
2022/08/24 09:47:54;;;;;;;4.30;3.90;;;22.50;99.90;;;;;;6183192;28;88327;-67
2022/08/24 09:51:27;;;;;;;4.82;4.43;;;22.50;99.90;;;;;;6196829;28;88449;-67
2022/08/24 09:55:07;;;;;;;4.15;3.80;;;22.50;99.90;;;;;;6203668;28;89068;-67
2022/08/24 09:58:18;;;;;;;4.30;3.97;;;22.50;99.90;;;;;;6191797;28;90007;-67
2022/08/24 10:01:31;;;;;;;4.00;3.70;;;22.50;99.90;;;;;;6186253;28;88329;-67
2022/08/24 10:04:41;;;;;;;4.00;3.70;;;22.50;99.90;;;;;;6198582;28;88983;-67
2022/08/24 10:07:54;;;;;;;4.75;4.35;;;22.50;99.90;;;;;;6188401;28;89017;-67
2022/08/24 10:11:07;;;;;;;4.38;3.95;;;22.50;99.90;;;;;;6189497;28;89149;-68
2022/08/24 10:14:16;;;;;;;5.10;4.50;;;22.60;99.90;;;;;;6196173;28;87946;-68
2022/08/24 10:17:25;;;;;;;5.03;4.47;;;22.50;99.90;;;;;;6209583;28;89174;-67
2022/08/24 10:20:39;;;;;;;4.70;4.25;;;22.60;99.90;;;;;;6198954;28;88052;-68
2022/08/24 10:24:16;;;;;;;4.38;3.97;;;22.50;99.90;;;;;;6189107;28;89113;-67
2022/08/24 10:27:33;;;;;;;4.63;4.22;;;22.60;99.90;;;;;;6192993;28;89071;-67
2022/08/24 10:30:58;;;;;;;5.25;4.55;;;22.60;99.90;;;;;;6191176;28;88933;-67
2022/08/24 10:34:18;;;;;;;4.50;4.10;;;22.60;99.90;;;;;;6184255;28;89076;-67
2022/08/24 10:39:39;;;;;;;4.70;4.30;;;22.60;99.90;;;;;;6198306;28;88642;-67
2022/08/24 10:41:55;;;;;;;4.78;4.38;;;22.60;99.90;;;;;;6192823;28;88027;-67
2022/08/24 10:45:11;;;;;;;4.90;4.40;;;22.60;99.90;;;;;;6198411;28;89076;-67
2022/08/24 10:48:35;;;;;;;5.68;5.10;;;22.60;99.90;;;;;;6184699;28;88484;-67
2022/08/24 10:51:51;;;;;;;5.32;4.82;;;22.60;99.90;;;;;;6198996;28;88366;-67
2022/08/24 10:54:54;;;;;;;5.03;4.63;;;22.60;99.90;;;;;;6204996;28;88300;-67
2022/08/24 10:58:39;;;;;;;4.60;4.20;;;22.60;99.90;;;;;;6205822;28;88996;-67
2022/08/24 11:02:00;;;;;;;5.32;4.82;;;22.60;99.90;;;;;;6200740;28;89001;-68
2022/08/24 11:05:06;;;;;;;5.55;5.00;;;22.60;99.90;;;;;;6194681;28;90124;-67
2022/08/24 11:08:12;;;;;;;5.55;5.05;;;22.60;99.90;;;;;;6190457;28;89076;-68
2022/08/24 11:11:24;;;;;;;4.90;4.50;;;22.60;99.90;;;;;;6202714;28;89030;-68
2022/08/24 11:14:30;;;;;;;5.00;4.50;;;22.60;99.90;;;;;;6197981;28;90358;-68
2022/08/24 11:17:34;;;;;;;5.30;4.80;;;22.60;99.90;;;;;;6192875;28;88757;-68
2022/08/24 11:20:41;;;;;;;4.47;4.07;;;22.60;99.90;;;;;;6196750;28;87927;-68
2022/08/24 11:23:44;;;;;;;3.90;3.60;;;22.60;99.90;;;;;;6195693;28;87975;-68
2022/08/24 11:26:51;;;;;;;3.50;3.20;;;22.60;99.90;;;;;;6196043;28;87315;-68
2022/08/24 11:30:01;;;;;;;4.05;3.30;;;22.70;99.90;;;;;;6206814;28;89036;-68
2022/08/24 11:33:06;;;;;;;4.45;3.45;;;22.70;99.90;;;;;;6188514;28;89046;-68
2022/08/24 11:36:16;;;;;;;3.53;3.25;;;22.70;99.90;;;;;;6188537;28;89946;-67
2022/08/24 11:39:22;;;;;;;3.80;3.50;;;22.70;99.90;;;;;;6207758;28;89603;-68
2022/08/24 11:42:39;;;;;;;3.90;3.60;;;22.70;99.90;;;;;;6192894;28;87879;-68
2022/08/24 11:45:52;;;;;;;3.75;3.45;;;22.70;99.90;;;;;;6202966;28;88724;-67
2022/08/24 11:49:07;;;;;;;4.10;3.70;;;22.70;99.90;;;;;;6196365;28;89094;-67
2022/08/24 11:52:19;;;;;;;3.88;3.58;;;22.70;99.90;;;;;;6200911;28;88854;-68
2022/08/24 11:55:29;;;;;;;3.30;3.00;;;22.80;99.90;;;;;;6185961;28;89266;-68
2022/08/24 11:58:45;;;;;;;3.78;3.47;;;22.80;99.90;;;;;;6202649;28;88271;-68
2022/08/24 12:01:53;;;;;;;4.30;3.90;;;22.80;99.90;;;;;;6194241;28;89032;-67
2022/08/24 12:05:03;;;;;;;3.80;3.50;;;22.80;99.90;;;;;;6204420;28;88830;-68
2022/08/24 12:08:13;;;;;;;3.90;3.60;;;22.80;99.90;;;;;;6205005;28;88710;-68
2022/08/24 12:11:22;;;;;;;3.85;3.55;;;22.80;99.90;;;;;;6189599;28;88015;-68
2022/08/24 12:14:33;;;;;;;3.83;3.53;;;22.80;99.90;;;;;;6183787;28;88817;-67
2022/08/24 12:17:39;;;;;;;4.00;3.60;;;22.90;99.90;;;;;;6193957;28;89128;-68
2022/08/24 12:20:45;;;;;;;3.80;3.50;;;22.90;99.90;;;;;;6194051;28;89054;-67
2022/08/24 12:23:50;;;;;;;3.83;3.40;;;22.90;99.90;;;;;;6198688;28;89451;-67
2022/08/24 12:26:59;;;;;;;5.10;3.60;;;22.90;99.90;;;;;;6204373;28;89360;-67
2022/08/24 12:30:05;;;;;;;3.67;3.30;;;22.90;99.90;;;;;;6205079;28;88453;-68
2022/08/24 12:33:12;;;;;;;3.88;3.22;;;22.90;99.90;;;;;;6204858;28;87961;-68
2022/08/24 12:36:22;;;;;;;4.95;3.75;;;22.90;99.90;;;;;;6182889;28;88923;-67
2022/08/24 12:39:29;;;;;;;4.40;3.97;;;22.90;99.90;;;;;;6182218;28;89902;-67
2022/08/24 12:42:39;;;;;;;4.43;4.03;;;22.90;99.90;;;;;;6194588;28;89063;-68
2022/08/24 12:45:42;;;;;;;4.40;4.00;;;22.90;99.90;;;;;;6204816;28;88224;-68
2022/08/24 12:48:50;;;;;;;4.82;3.95;;;22.90;99.90;;;;;;6194175;28;89068;-68
2022/08/24 12:52:12;;;;;;;4.10;3.80;;;22.90;99.90;;;;;;6200434;28;89135;-67
2022/08/24 12:55:49;;;;;;;5.35;4.32;;;23.00;99.90;;;;;;6204195;28;89464;-68
2022/08/24 12:59:03;;;;;;;4.72;4.10;;;22.90;99.90;;;;;;6173988;28;88000;-68
2022/08/24 13:02:09;;;;;;;4.55;4.15;;;22.90;99.90;;;;;;6205716;28;88309;-68
2022/08/24 13:05:15;;;;;;;4.30;3.90;;;22.90;99.90;;;;;;6203246;28;89518;-68
2022/08/24 13:08:33;;;;;;;4.47;4.07;;;22.90;99.90;;;;;;6204650;28;89018;-68
2022/08/24 13:11:36;;;;;;;4.35;3.95;;;22.90;99.90;;;;;;6195614;28;90074;-68
2022/08/24 13:14:38;;;;;;;4.50;4.10;;;22.90;99.90;;;;;;6187395;28;88081;-68
2022/08/24 13:17:41;;;;;;;4.40;4.07;;;22.90;99.90;;;;;;6193408;28;92192;-68
2022/08/24 13:20:55;;;;;;;4.72;4.32;;;23.00;99.90;;;;;;6202836;28;88423;-68
2022/08/24 13:24:30;;;;;;;4.63;4.32;;;23.00;99.90;;;;;;6187815;28;89169;-68
2022/08/24 13:28:11;;;;;;;4.45;4.05;;;23.00;99.90;;;;;;6194784;28;89110;-68
2022/08/24 13:31:25;;;;;;;4.40;4.00;;;23.00;99.90;;;;;;6182298;28;89087;-68
2022/08/24 13:34:40;;;;;;;4.85;4.35;;;22.90;99.90;;;;;;6184043;28;88384;-68
2022/08/24 13:37:42;;;;;;;5.38;4.60;;;23.00;99.90;;;;;;6196278;28;88998;-68
2022/08/24 13:40:49;;;;;;;4.93;4.53;;;22.90;99.90;;;;;;6201404;28;89066;-68
2022/08/24 13:43:58;;;;;;;4.85;4.45;;;23.00;99.90;;;;;;6193897;28;90096;-67
2022/08/24 13:47:12;;;;;;;4.80;4.40;;;23.00;99.90;;;;;;6205785;28;89056;-68
2022/08/24 13:50:37;;;;;;;5.40;4.93;;;23.00;99.90;;;;;;6189412;28;89249;-68
2022/08/24 13:54:06;;;;;;;5.90;5.40;;;23.00;99.90;;;;;;6193310;28;88948;-68
2022/08/24 13:57:31;;;;;;;5.90;5.30;;;23.00;99.90;;;;;;6188850;28;90985;-68
2022/08/24 14:00:42;;;;;;;6.13;5.53;;;23.00;99.90;;;;;;6192771;28;89059;-68
2022/08/24 14:04:08;;;;;;;6.38;5.80;;;23.00;99.90;;;;;;6204847;28;89096;-68
2022/08/24 14:07:17;;;;;;;5.95;5.45;;;23.00;99.90;;;;;;6194110;28;88840;-68
2022/08/24 14:10:36;;;;;;;6.10;5.60;;;23.00;99.90;;;;;;6184442;28;88069;-68
2022/08/24 14:13:51;;;;;;;6.00;5.50;;;23.00;99.90;;;;;;6181074;28;87780;-68
2022/08/24 14:21:05;;;;;;;6.20;5.60;;;23.00;99.90;;;;;;6188860;28;86959;-68
2022/08/24 14:24:13;;;;;;;6.30;5.70;;;23.00;99.90;;;;;;6175996;28;89010;-68
2022/08/24 14:27:38;;;;;;;5.97;5.38;;;23.10;99.90;;;;;;6189607;28;89097;-68
2022/08/24 14:30:44;;;;;;;5.70;5.20;;;23.00;99.90;;;;;;6192091;28;89493;-68
2022/08/24 14:33:56;;;;;;;4.90;4.50;;;23.00;99.90;;;;;;6197674;28;89097;-68
2022/08/24 14:37:06;;;;;;;5.75;5.25;;;23.00;99.90;;;;;;6198984;28;87999;-68
2022/08/24 14:40:23;;;;;;;5.57;5.07;;;23.00;99.90;;;;;;6199126;28;87361;-68
2022/08/24 14:43:32;;;;;;;5.70;5.20;;;23.00;99.90;;;;;;6191647;28;89085;-68
2022/08/24 14:46:44;;;;;;;5.43;5.03;;;23.00;99.90;;;;;;6188078;28;89512;-68
2022/08/24 14:50:03;;;;;;;5.47;4.97;;;23.00;99.90;;;;;;6194856;28;88928;-68
2022/08/24 14:53:23;;;;;;;5.82;5.32;;;23.00;99.90;;;;;;6199327;28;88178;-68
2022/08/24 14:56:49;;;;;;;6.45;5.82;;;23.00;99.90;;;;;;6196889;28;88128;-68
2022/08/24 15:00:03;;;;;;;6.78;6.10;;;23.00;99.90;;;;;;6197320;28;87031;-66
2022/08/24 15:03:23;;;;;;;7.13;6.43;;;23.00;99.90;;;;;;6206464;28;87088;-65
2022/08/24 15:06:29;;;;;;;7.85;7.15;;;23.00;99.90;;;;;;6207198;28;89189;-65
2022/08/24 15:09:36;;;;;;;6.45;5.95;;;23.10;99.90;;;;;;6190800;28;88909;-66
2022/08/24 15:12:43;;;;;;;6.50;5.90;;;23.10;99.90;;;;;;6187749;28;88380;-66
2022/08/24 15:15:53;;;;;;;8.25;6.82;;;23.10;99.90;;;;;;6195435;28;89117;-65
2022/08/24 15:19:05;;;;;;;6.78;6.18;;;23.10;99.90;;;;;;6193501;28;88013;-65
2022/08/24 15:22:14;;;;;;;6.72;5.93;;;23.10;99.90;;;;;;6195903;28;90136;-65
2022/08/24 15:25:28;;;;;;;6.68;6.07;;;23.10;99.90;;;;;;6194057;28;89414;-65
2022/08/24 15:28:33;;;;;;;7.28;6.55;;;23.10;99.90;;;;;;6182357;28;89265;-68
2022/08/24 15:31:35;;;;;;;7.00;6.40;;;23.10;99.90;;;;;;6184049;28;89033;-68
2022/08/24 15:34:44;;;;;;;7.22;6.53;;;23.10;99.90;;;;;;6205715;28;89047;-68
2022/08/24 15:37:46;;;;;;;6.40;5.85;;;23.10;99.90;;;;;;6183260;28;88901;-68
2022/08/24 15:40:54;;;;;;;6.50;5.90;;;23.10;99.90;;;;;;6202720;28;89074;-68
2022/08/24 15:43:59;;;;;;;6.10;5.60;;;23.10;99.90;;;;;;6198933;28;89379;-68
2022/08/24 15:47:18;;;;;;;6.40;5.85;;;23.20;99.90;;;;;;6201171;28;87959;-68
2022/08/24 15:50:24;;;;;;;7.32;6.63;;;23.10;99.90;;;;;;6187821;28;89140;-68
2022/08/24 15:53:32;;;;;;;6.60;6.00;;;23.20;99.90;;;;;;6193565;28;90035;-67
2022/08/24 15:56:43;;;;;;;6.72;6.18;;;23.20;99.90;;;;;;6183581;28;87978;-68
2022/08/24 15:59:47;;;;;;;7.15;6.55;;;23.10;99.90;;;;;;6192952;28;89263;-68
2022/08/24 16:02:49;;;;;;;6.57;5.95;;;23.10;99.90;;;;;;6192610;28;89101;-68
2022/08/24 16:05:53;;;;;;;6.97;6.38;;;23.10;99.90;;;;;;6206229;28;87728;-68
2022/08/24 16:09:01;;;;;;;6.63;6.13;;;23.10;99.90;;;;;;6208306;28;87984;-68
2022/08/24 16:12:08;;;;;;;6.45;5.45;;;23.10;99.90;;;;;;6191174;28;88884;-68
2022/08/24 16:15:16;;;;;;;6.40;5.78;;;23.10;99.90;;;;;;6202534;28;88485;-68
2022/08/24 16:18:20;;;;;;;5.50;5.00;;;23.10;99.90;;;;;;6185654;28;90469;-68
2022/08/24 16:21:28;;;;;;;5.60;5.10;;;23.10;99.90;;;;;;6195456;28;89102;-68
2022/08/24 16:24:34;;;;;;;6.35;5.50;;;23.10;99.90;;;;;;6204449;28;90123;-68
2022/08/24 16:27:54;;;;;;;6.30;5.70;;;23.10;99.90;;;;;;6191963;28;89774;-68
2022/08/24 16:30:58;;;;;;;6.03;5.53;;;23.10;99.90;;;;;;6206902;28;89038;-68
2022/08/24 16:34:16;;;;;;;6.30;5.80;;;23.10;99.90;;;;;;6204209;28;88363;-68